createdAt,value
2022-09-28T00:01:16.762Z,0.30
2022-09-28T00:03:47.576Z,0.30
2022-09-28T00:06:18.519Z,0.40
2022-09-28T00:08:47.035Z,0.28
2022-09-28T00:11:16.411Z,0.30
2022-09-28T00:13:46.344Z,0.40
2022-09-28T00:16:16.897Z,0.20
2022-09-28T00:18:47.318Z,0.20
2022-09-28T00:21:17.643Z,0.30
2022-09-28T00:24:03.826Z,0.50
2022-09-28T00:26:35.083Z,0.30
2022-09-28T00:29:04.145Z,0.20
2022-09-28T00:31:34.009Z,0.20
2022-09-28T00:34:05.400Z,0.40
2022-09-28T00:36:34.932Z,0.40
2022-09-28T00:39:06.623Z,0.20
2022-09-28T00:44:38.051Z,0.38
2022-09-28T00:47:17.079Z,0.20
2022-09-28T00:49:51.603Z,0.20
2022-09-28T00:52:23.889Z,0.22
2022-09-28T00:54:54.368Z,0.20
2022-09-28T00:57:24.385Z,0.30
2022-09-28T00:59:53.810Z,0.20
2022-09-28T01:02:22.803Z,0.20
2022-09-28T01:04:53.876Z,0.13
2022-09-28T01:07:23.016Z,0.20
2022-09-28T01:09:54.045Z,0.10
2022-09-28T01:12:22.462Z,0.20
2022-09-28T01:14:51.896Z,0.10
2022-09-28T01:17:26.901Z,0.20
2022-09-28T01:20:30.255Z,0.30
2022-09-28T01:23:46.483Z,0.20
2022-09-28T01:26:43.097Z,0.20
2022-09-28T01:29:18.725Z,0.28
2022-09-28T01:31:51.887Z,0.22
2022-09-28T01:34:26.668Z,0.20
2022-09-28T01:36:58.633Z,0.30
2022-09-28T01:39:34.305Z,0.40
2022-09-28T01:42:09.399Z,0.25
2022-09-28T01:44:42.770Z,0.20
2022-09-28T01:47:14.921Z,0.28
2022-09-28T01:49:48.020Z,0.20
2022-09-28T01:52:19.435Z,0.20
2022-09-28T01:54:53.916Z,0.20
2022-09-28T01:57:27.030Z,0.30
2022-09-28T02:00:01.925Z,0.45
2022-09-28T02:02:34.423Z,0.28
2022-09-28T02:05:09.350Z,0.17
2022-09-28T02:07:42.522Z,0.20
2022-09-28T02:10:16.045Z,0.20
2022-09-28T02:12:49.617Z,0.30
2022-09-28T02:15:24.205Z,0.20
2022-09-28T02:17:53.021Z,0.30
2022-09-28T02:20:23.053Z,0.30
2022-09-28T02:22:53.212Z,0.52
2022-09-28T02:25:29.421Z,0.20
2022-09-28T02:28:01.955Z,0.40
2022-09-28T02:30:33.616Z,0.20
2022-09-28T02:33:06.453Z,0.22
2022-09-28T02:35:35.457Z,0.22
2022-09-28T02:38:04.315Z,0.15
2022-09-28T02:40:34.810Z,0.38
2022-09-28T02:43:11.787Z,0.20
2022-09-28T02:46:00.635Z,0.20
2022-09-28T02:49:10.441Z,0.30
2022-09-28T02:51:50.065Z,0.30
2022-09-28T02:54:48.302Z,0.30
2022-09-28T02:57:27.231Z,0.20
2022-09-28T03:00:05.666Z,0.30
2022-09-28T03:02:40.120Z,0.30
2022-09-28T03:05:16.059Z,0.22
2022-09-28T03:07:51.477Z,0.30
2022-09-28T03:10:26.522Z,0.20
2022-09-28T03:12:55.797Z,0.30
2022-09-28T03:15:27.946Z,0.40
2022-09-28T03:17:57.959Z,0.30
2022-09-28T03:20:26.930Z,0.30
2022-09-28T03:23:20.131Z,0.30
2022-09-28T03:25:44.058Z,0.32
2022-09-28T03:28:12.300Z,0.50
2022-09-28T03:30:43.983Z,0.25
2022-09-28T03:33:12.627Z,0.20
2022-09-28T03:35:41.081Z,0.30
2022-09-28T03:38:09.453Z,0.30
2022-09-28T03:40:39.692Z,0.30
2022-09-28T03:43:07.990Z,0.25
2022-09-28T03:45:36.265Z,0.30
2022-09-28T03:48:06.010Z,0.30
2022-09-28T03:50:35.757Z,0.38
2022-09-28T03:53:04.904Z,0.28
2022-09-28T03:55:33.539Z,0.30
2022-09-28T03:58:01.797Z,0.20
2022-09-28T04:00:31.189Z,0.25
2022-09-28T04:02:59.590Z,0.20
2022-09-28T04:05:30.199Z,0.30
2022-09-28T04:07:58.797Z,0.28
2022-09-28T04:10:27.485Z,0.20
2022-09-28T04:12:56.726Z,0.25
2022-09-28T04:15:25.445Z,0.20
2022-09-28T04:17:54.042Z,0.20
2022-09-28T04:20:45.421Z,0.30
2022-09-28T04:23:14.845Z,0.28
2022-09-28T04:25:45.845Z,0.20
2022-09-28T04:28:31.402Z,0.20
2022-09-28T04:30:59.886Z,0.28
2022-09-28T04:33:28.151Z,0.20
2022-09-28T04:35:57.797Z,0.20
2022-09-28T04:38:48.427Z,0.10
2022-09-28T04:41:14.654Z,0.20
2022-09-28T04:43:42.862Z,0.30
2022-09-28T04:46:12.743Z,0.30
2022-09-28T04:48:48.433Z,0.20
2022-09-28T04:51:36.652Z,0.10
2022-09-28T04:54:05.067Z,0.38
2022-09-28T04:56:33.267Z,0.30
2022-09-28T04:59:01.578Z,0.57
2022-09-28T05:01:30.073Z,0.20
2022-09-28T05:03:58.325Z,0.30
2022-09-28T05:06:40.406Z,0.30
2022-09-28T05:09:10.265Z,0.20
2022-09-28T05:11:38.568Z,0.40
2022-09-28T05:14:12.901Z,0.30
2022-09-28T05:16:41.974Z,0.30
2022-09-28T05:19:28.633Z,0.22
2022-09-28T05:22:04.815Z,0.30
2022-09-28T05:24:39.427Z,0.20
2022-09-28T05:27:07.810Z,0.30
2022-09-28T05:29:36.176Z,0.30
2022-09-28T05:32:23.278Z,0.20
2022-09-28T05:35:01.197Z,0.20
2022-09-28T05:37:41.207Z,0.40
2022-09-28T05:40:10.523Z,0.22
2022-09-28T05:42:40.740Z,0.30
2022-09-28T05:45:10.575Z,0.32
2022-09-28T05:47:42.392Z,0.80
2022-09-28T05:50:12.595Z,0.52
2022-09-28T05:52:43.976Z,0.38
2022-09-28T05:55:12.953Z,0.40
2022-09-28T05:57:43.152Z,0.40
2022-09-28T06:00:13.013Z,0.95
2022-09-28T06:02:42.907Z,0.50
2022-09-28T06:05:14.041Z,0.40
2022-09-28T06:07:43.754Z,0.40
2022-09-28T06:10:12.082Z,0.40
2022-09-28T06:12:45.095Z,0.50
2022-09-28T06:15:17.423Z,0.47
2022-09-28T06:17:48.728Z,0.60
2022-09-28T06:20:41.055Z,0.50
2022-09-28T06:23:22.143Z,0.50
2022-09-28T06:25:50.427Z,0.45
2022-09-28T06:28:20.034Z,0.30
2022-09-28T06:30:48.416Z,0.40
2022-09-28T06:33:19.438Z,0.47
2022-09-28T06:35:48.028Z,0.20
2022-09-28T06:38:16.469Z,0.50
2022-09-28T06:40:46.195Z,0.50
2022-09-28T06:43:15.832Z,0.32
2022-09-28T06:46:03.618Z,0.40
2022-09-28T06:48:51.019Z,0.40
2022-09-28T06:51:25.024Z,0.32
2022-09-28T06:54:02.102Z,0.50
2022-09-28T06:56:39.888Z,2.25
2022-09-28T06:59:08.229Z,1.35
2022-09-28T07:01:39.586Z,1.00
2022-09-28T07:04:20.801Z,1.00
2022-09-28T07:07:08.840Z,0.70
2022-09-28T07:12:43.681Z,0.70
2022-09-28T07:15:31.220Z,0.60
2022-09-28T07:18:03.785Z,0.60
2022-09-28T07:23:18.652Z,0.40
2022-09-28T07:26:09.061Z,0.40
2022-09-28T07:29:11.767Z,0.35
2022-09-28T07:32:00.231Z,0.50
2022-09-28T07:34:44.523Z,0.40
2022-09-28T07:37:39.804Z,0.40
2022-09-28T07:40:27.878Z,0.30
2022-09-28T07:42:56.411Z,0.40
2022-09-28T07:45:26.477Z,0.50
2022-09-28T07:47:56.910Z,0.40
2022-09-28T07:50:56.744Z,0.40
2022-09-28T07:53:55.251Z,0.70
2022-09-28T07:56:49.335Z,0.40
2022-09-28T07:59:26.419Z,0.50
2022-09-28T08:02:15.152Z,0.50
2022-09-28T08:04:43.884Z,0.47
2022-09-28T08:07:13.387Z,0.50
2022-09-28T08:09:42.156Z,0.50
2022-09-28T08:12:28.592Z,0.90
2022-09-28T08:15:11.831Z,1.20
2022-09-28T08:17:49.846Z,1.30
2022-09-28T08:20:39.025Z,0.80
2022-09-28T08:23:08.916Z,0.80
2022-09-28T08:25:39.458Z,17.70
2022-09-28T08:28:08.675Z,6.38
2022-09-28T08:30:47.523Z,4.30
2022-09-28T08:33:29.726Z,3.03
2022-09-28T08:36:35.878Z,1.80
2022-09-28T08:39:24.282Z,1.67
2022-09-28T08:42:32.137Z,0.90
2022-09-28T08:45:27.517Z,0.77
2022-09-28T08:48:29.964Z,0.70
2022-09-28T08:51:22.054Z,0.65
2022-09-28T08:54:14.591Z,0.60
2022-09-28T08:56:54.681Z,0.40
2022-09-28T08:59:26.387Z,0.50
2022-09-28T09:02:15.674Z,0.60
2022-09-28T09:04:44.665Z,0.43
2022-09-28T09:07:37.877Z,0.50
2022-09-28T09:10:14.950Z,0.40
2022-09-28T09:12:47.970Z,0.25
2022-09-28T09:17:50.182Z,1.17
2022-09-28T09:20:31.975Z,0.80
2022-09-28T09:23:20.347Z,0.73
2022-09-28T09:25:50.853Z,0.70
2022-09-28T09:28:32.794Z,0.60
2022-09-28T09:31:09.482Z,0.40
2022-09-28T09:34:04.359Z,0.65
2022-09-28T09:36:47.474Z,0.60
2022-09-28T09:39:47.823Z,2.25
2022-09-28T09:42:43.624Z,2.10
2022-09-28T09:45:51.547Z,2.90
2022-09-28T09:48:37.800Z,2.58
2022-09-28T09:51:08.458Z,1.70
2022-09-28T09:56:19.106Z,2.00
2022-09-28T09:59:23.007Z,1.23
2022-09-28T10:02:21.227Z,1.17
2022-09-28T10:04:55.882Z,1.23
2022-09-28T10:07:33.826Z,1.98
2022-09-28T10:10:03.502Z,3.03
2022-09-28T10:12:49.444Z,2.72
2022-09-28T10:15:20.868Z,1.98
2022-09-28T10:18:03.592Z,1.33
2022-09-28T10:20:50.884Z,1.02
2022-09-28T10:23:41.772Z,0.82
2022-09-28T10:26:13.464Z,0.82
2022-09-28T10:28:46.676Z,0.60
2022-09-28T10:31:34.227Z,0.65
2022-09-28T10:34:03.317Z,0.70
2022-09-28T10:36:38.318Z,0.70
2022-09-28T10:39:08.195Z,0.70
2022-09-28T10:41:50.467Z,0.60
2022-09-28T10:44:24.188Z,0.57
2022-09-28T10:47:17.108Z,0.50
2022-09-28T10:49:48.502Z,0.60
2022-09-28T10:52:34.134Z,0.35
2022-09-28T10:55:02.919Z,0.65
2022-09-28T10:57:35.011Z,0.40
2022-09-28T11:00:29.220Z,0.50
2022-09-28T11:03:21.137Z,0.50
2022-09-28T11:05:57.294Z,0.65
2022-09-28T11:08:29.274Z,0.75
2022-09-28T11:11:08.733Z,0.60
2022-09-28T11:13:41.792Z,0.50
2022-09-28T11:16:22.385Z,0.60
2022-09-28T11:18:51.079Z,0.75
2022-09-28T11:21:24.023Z,0.60
2022-09-28T11:24:01.243Z,0.60
2022-09-28T11:26:36.611Z,0.60
2022-09-28T11:29:07.482Z,0.70
2022-09-28T11:31:54.150Z,0.65
2022-09-28T11:34:36.185Z,0.57
2022-09-28T11:37:33.676Z,0.50
2022-09-28T11:40:10.086Z,0.70
2022-09-28T11:42:44.306Z,0.70
2022-09-28T11:45:22.362Z,0.60
2022-09-28T11:47:57.409Z,0.50
2022-09-28T11:50:32.070Z,0.75
2022-09-28T11:53:05.898Z,0.60
2022-09-28T11:55:37.424Z,0.68
2022-09-28T11:58:10.704Z,0.80
2022-09-28T12:00:44.267Z,28.13
2022-09-28T12:03:17.006Z,60.30
2022-09-28T12:05:46.902Z,64.53
2022-09-28T12:08:17.224Z,69.22
2022-09-28T12:11:15.641Z,57.35
2022-09-28T12:14:25.185Z,28.83
2022-09-28T12:17:07.398Z,15.63
2022-09-28T12:19:40.911Z,8.18
2022-09-28T12:22:14.248Z,5.25
2022-09-28T12:24:45.094Z,3.00
2022-09-28T12:27:16.570Z,2.05
2022-09-28T12:29:48.732Z,1.85
2022-09-28T12:32:23.927Z,1.30
2022-09-28T12:34:53.979Z,1.10
2022-09-28T12:37:30.431Z,2.10
2022-09-28T12:40:20.081Z,1.50
2022-09-28T12:43:00.881Z,1.27
2022-09-28T12:45:53.226Z,1.00
2022-09-28T12:48:36.153Z,1.05
2022-09-28T12:51:11.208Z,0.90
2022-09-28T12:53:48.938Z,1.00
2022-09-28T12:56:22.345Z,1.05
2022-09-28T12:59:00.098Z,0.80
2022-09-28T13:01:35.917Z,1.10
2022-09-28T13:04:13.316Z,1.00
2022-09-28T13:06:48.778Z,1.17
2022-09-28T13:09:27.536Z,1.55
2022-09-28T13:12:11.004Z,1.73
2022-09-28T13:15:03.696Z,2.00
2022-09-28T13:17:40.722Z,1.70
2022-09-28T13:20:17.104Z,1.30
2022-09-28T13:22:51.615Z,1.50
2022-09-28T13:25:22.274Z,1.13
2022-09-28T13:27:53.605Z,1.35
2022-09-28T13:30:22.285Z,1.30
2022-09-28T13:32:51.584Z,1.20
2022-09-28T13:35:20.536Z,1.20
2022-09-28T13:38:10.431Z,1.30
2022-09-28T13:40:54.138Z,1.10
2022-09-28T13:43:27.649Z,1.63
2022-09-28T13:45:57.016Z,1.33
2022-09-28T13:48:30.293Z,1.15
2022-09-28T13:51:09.757Z,1.08
2022-09-28T13:53:45.494Z,1.15
2022-09-28T13:56:24.562Z,1.20
2022-09-28T13:58:55.697Z,1.30
2022-09-28T14:01:28.454Z,1.00
2022-09-28T14:03:58.145Z,1.10
2022-09-28T14:06:28.216Z,1.27
2022-09-28T14:09:24.356Z,1.30
2022-09-28T14:11:56.754Z,1.30
2022-09-28T14:14:27.470Z,0.90
2022-09-28T14:17:01.946Z,1.08
2022-09-28T14:19:32.229Z,1.30
2022-09-28T14:22:07.046Z,1.40
2022-09-28T14:24:45.158Z,1.17
2022-09-28T14:27:28.630Z,1.40
2022-09-28T14:30:07.958Z,1.33
2022-09-28T14:32:37.779Z,2.00
2022-09-28T14:35:07.711Z,1.95
2022-09-28T14:37:55.210Z,1.70
2022-09-28T14:40:49.439Z,1.40
2022-09-28T14:43:24.397Z,248.55
2022-09-28T14:45:54.670Z,103.95
2022-09-28T14:48:44.228Z,145.40
2022-09-28T14:51:33.632Z,89.32
2022-09-28T14:54:05.311Z,55.88
2022-09-28T14:59:04.114Z,140.02
2022-09-28T15:01:32.709Z,107.78
2022-09-28T15:04:04.671Z,112.25
2022-09-28T15:06:46.467Z,104.97
2022-09-28T15:09:30.732Z,73.75
2022-09-28T15:12:02.451Z,49.67
2022-09-28T15:17:03.481Z,20.90
2022-09-28T15:19:34.880Z,13.13
2022-09-28T15:22:03.628Z,8.60
2022-09-28T15:24:33.147Z,6.28
2022-09-28T15:27:02.222Z,4.40
2022-09-28T15:29:33.346Z,3.50
2022-09-28T15:32:04.902Z,2.88
2022-09-28T15:34:54.800Z,2.60
2022-09-28T15:37:24.846Z,2.20
2022-09-28T15:39:54.548Z,2.28
2022-09-28T15:42:23.551Z,2.20
2022-09-28T15:45:09.983Z,1.80
2022-09-28T15:47:40.166Z,1.90
2022-09-28T15:50:09.586Z,1.30
2022-09-28T15:52:40.706Z,1.45
2022-09-28T15:55:19.729Z,1.50
2022-09-28T15:57:48.748Z,1.10
2022-09-28T16:00:25.360Z,1.13
2022-09-28T16:03:03.639Z,1.10
2022-09-28T16:05:36.028Z,1.50
2022-09-28T16:08:05.649Z,1.23
2022-09-28T16:10:35.890Z,1.42
2022-09-28T16:13:14.315Z,1.02
2022-09-28T16:15:43.144Z,1.33
2022-09-28T16:18:23.619Z,1.55
2022-09-28T16:20:53.354Z,1.50
2022-09-28T16:23:24.121Z,1.48
2022-09-28T16:25:54.761Z,1.63
2022-09-28T16:28:31.391Z,1.30
2022-09-28T16:31:03.700Z,1.33
2022-09-28T16:33:42.592Z,1.33
2022-09-28T16:36:13.388Z,1.23
2022-09-28T16:38:42.260Z,1.20
2022-09-28T16:41:10.932Z,1.05
2022-09-28T16:43:40.604Z,1.30
2022-09-28T16:46:10.381Z,1.50
2022-09-28T16:48:48.719Z,1.30
2022-09-28T16:51:17.454Z,1.30
2022-09-28T16:54:03.814Z,1.73
2022-09-28T16:56:33.096Z,1.70
2022-09-28T16:59:02.454Z,1.75
2022-09-28T17:01:31.442Z,1.63
2022-09-28T17:04:01.618Z,169.80
2022-09-28T17:06:30.298Z,185.30
2022-09-28T17:09:00.133Z,144.68
2022-09-28T17:11:28.952Z,90.32
2022-09-28T17:13:59.138Z,92.10
2022-09-28T17:16:57.657Z,52.05
2022-09-28T17:19:22.147Z,36.25
2022-09-28T17:21:51.669Z,34.15
2022-09-28T17:24:20.869Z,67.07
2022-09-28T17:26:51.584Z,78.85
2022-09-28T17:29:20.275Z,241.23
2022-09-28T17:31:49.237Z,98.10
2022-09-28T17:34:18.275Z,91.80
2022-09-28T17:36:48.583Z,78.15
2022-09-28T17:39:18.506Z,107.63
2022-09-28T17:41:47.343Z,75.18
2022-09-28T17:44:16.362Z,47.00
2022-09-28T17:46:48.656Z,50.40
2022-09-28T17:49:18.766Z,74.03
2022-09-28T17:51:50.164Z,78.10
2022-09-28T17:54:22.537Z,115.28
2022-09-28T17:56:51.498Z,78.72
2022-09-28T17:59:20.081Z,69.80
2022-09-28T18:01:48.795Z,49.33
2022-09-28T18:04:33.758Z,31.98
2022-09-28T18:07:07.668Z,21.90
2022-09-28T18:09:36.216Z,14.55
2022-09-28T18:12:06.430Z,10.60
2022-09-28T18:14:35.892Z,7.43
2022-09-28T18:17:04.588Z,6.32
2022-09-28T18:19:33.213Z,4.60
2022-09-28T18:22:02.561Z,4.18
2022-09-28T18:24:32.730Z,3.05
2022-09-28T18:27:01.410Z,3.00
2022-09-28T18:29:33.099Z,2.65
2022-09-28T18:32:02.049Z,2.53
2022-09-28T18:34:30.574Z,2.38
2022-09-28T18:36:59.171Z,1.90
2022-09-28T18:39:27.734Z,2.05
2022-09-28T18:41:57.797Z,1.60
2022-09-28T18:44:27.378Z,1.80
2022-09-28T18:46:55.939Z,1.75
2022-09-28T18:49:24.574Z,1.70
2022-09-28T18:51:53.195Z,1.60
2022-09-28T18:54:21.781Z,1.48
2022-09-28T18:56:51.335Z,1.50
2022-09-28T18:59:21.249Z,1.20
2022-09-28T19:01:49.907Z,1.05
2022-09-28T19:04:20.043Z,1.13
2022-09-28T19:06:51.850Z,0.98
2022-09-28T19:09:21.433Z,0.90
2022-09-28T19:11:50.394Z,0.90
2022-09-28T19:14:19.124Z,0.90
2022-09-28T19:16:49.737Z,1.10
2022-09-28T19:19:19.415Z,0.88
2022-09-28T19:21:48.452Z,0.80
2022-09-28T19:24:18.051Z,0.90
2022-09-28T19:26:47.566Z,0.93
2022-09-28T19:29:16.400Z,0.85
2022-09-28T19:31:44.968Z,0.80
2022-09-28T19:34:15.434Z,0.70
2022-09-28T19:36:44.242Z,0.80
2022-09-28T19:39:15.327Z,0.88
2022-09-28T19:41:47.933Z,0.70
2022-09-28T19:44:24.617Z,0.90
2022-09-28T19:46:54.719Z,0.90
2022-09-28T19:49:25.372Z,0.90
2022-09-28T19:52:13.741Z,1.17
2022-09-28T19:54:44.460Z,0.93
2022-09-28T19:57:15.924Z,1.00
